createdAt,value
2022-12-31T00:02:18.973Z,100072.89
2022-12-31T00:05:20.303Z,100066.65
2022-12-31T00:07:58.991Z,100066.63
2022-12-31T00:10:57.352Z,100066.92
2022-12-31T00:13:35.731Z,100061.88
2022-12-31T00:16:40.477Z,100058.21
2022-12-31T00:19:28.124Z,100053.16
2022-12-31T00:22:21.000Z,100050.31
2022-12-31T00:25:05.044Z,100052.30
2022-12-31T00:28:45.861Z,100063.48
2022-12-31T00:31:12.092Z,100073.58
2022-12-31T00:34:00.968Z,100069.18
2022-12-31T00:36:40.063Z,100066.98
2022-12-31T00:39:47.310Z,100069.79
2022-12-31T00:42:30.749Z,100065.36
2022-12-31T00:45:43.520Z,100057.71
2022-12-31T00:48:39.403Z,100056.45
2022-12-31T00:51:37.899Z,100063.58
2022-12-31T00:54:31.239Z,100071.61
2022-12-31T00:57:28.945Z,100077.43
2022-12-31T01:00:14.817Z,100082.17
2022-12-31T01:03:05.418Z,100087.04
2022-12-31T01:05:47.297Z,100090.27
2022-12-31T01:08:21.208Z,100087.80
2022-12-31T01:11:11.911Z,100088.23
2022-12-31T01:13:59.456Z,100089.48
2022-12-31T01:16:38.109Z,100086.66
2022-12-31T01:19:19.878Z,100070.69
2022-12-31T01:21:57.459Z,100070.80
2022-12-31T01:24:39.818Z,100072.30
2022-12-31T01:27:14.325Z,100067.21
2022-12-31T01:29:49.818Z,100059.88
2022-12-31T01:32:23.374Z,100056.67
2022-12-31T01:34:56.842Z,100047.08
2022-12-31T01:37:36.044Z,100047.71
2022-12-31T01:40:26.968Z,100051.14
2022-12-31T01:43:45.081Z,100058.41
2022-12-31T01:46:44.813Z,100065.99
2022-12-31T01:49:49.514Z,100064.77
2022-12-31T01:52:45.042Z,100064.77
2022-12-31T01:55:28.781Z,100061.39
2022-12-31T01:58:17.804Z,100058.71
2022-12-31T02:01:05.457Z,100064.70
2022-12-31T02:03:43.026Z,100064.09
2022-12-31T02:06:22.255Z,100064.98
2022-12-31T02:08:57.198Z,100062.45
2022-12-31T02:11:38.059Z,100068.75
2022-12-31T02:14:19.718Z,100076.15
2022-12-31T02:17:39.262Z,100082.48
2022-12-31T02:20:45.823Z,100075.73
2022-12-31T02:23:38.697Z,100078.77
2022-12-31T02:26:19.147Z,100076.52
2022-12-31T02:29:56.340Z,100073.60
2022-12-31T02:34:09.275Z,100069.61
2022-12-31T02:36:46.343Z,100069.89
2022-12-31T02:39:44.559Z,100078.35
2022-12-31T02:42:41.102Z,100078.61
2022-12-31T02:45:43.428Z,100083.91
2022-12-31T02:48:47.566Z,100086.86
2022-12-31T02:53:01.054Z,100087.00
2022-12-31T02:55:23.377Z,100091.10
2022-12-31T02:58:20.651Z,100089.57
2022-12-31T03:01:19.669Z,100088.43
2022-12-31T03:04:44.843Z,100090.10
2022-12-31T03:08:05.885Z,100091.19
2022-12-31T03:11:06.103Z,100087.48
2022-12-31T03:14:16.177Z,100087.31
2022-12-31T03:16:55.793Z,100085.20
2022-12-31T03:20:02.661Z,100078.23
2022-12-31T03:22:53.444Z,100081.98
2022-12-31T03:25:41.153Z,100081.06
2022-12-31T03:28:22.987Z,100084.47
2022-12-31T03:31:08.811Z,100087.03
2022-12-31T03:33:43.707Z,100091.66
2022-12-31T03:36:31.192Z,100094.40
2022-12-31T03:39:09.968Z,100093.00
2022-12-31T03:41:46.857Z,100098.27
2022-12-31T03:44:33.611Z,100093.58
2022-12-31T03:47:12.104Z,100090.69
2022-12-31T03:50:03.138Z,100086.02
2022-12-31T03:52:48.848Z,100093.94
2022-12-31T03:56:26.570Z,100097.66
2022-12-31T03:58:44.323Z,100099.25
2022-12-31T04:01:47.137Z,100105.50
2022-12-31T04:04:37.113Z,100111.80
2022-12-31T04:07:27.902Z,100117.10
2022-12-31T04:10:18.431Z,100117.11
2022-12-31T04:13:05.975Z,100111.80
2022-12-31T04:16:06.169Z,100110.55
2022-12-31T04:19:09.004Z,100106.33
2022-12-31T04:22:03.455Z,100105.19
2022-12-31T04:24:48.108Z,100105.64
2022-12-31T04:27:46.906Z,100101.63
2022-12-31T04:30:41.275Z,100096.13
2022-12-31T04:33:20.800Z,100101.89
2022-12-31T04:36:15.668Z,100092.48
2022-12-31T04:39:02.093Z,100093.83
2022-12-31T04:42:04.870Z,100095.36
2022-12-31T04:44:45.258Z,100095.52
2022-12-31T04:47:40.083Z,100101.69
2022-12-31T04:50:48.239Z,100107.60
2022-12-31T04:53:33.512Z,100102.90
2022-12-31T04:56:20.188Z,100101.69
2022-12-31T04:59:38.171Z,100107.73
2022-12-31T05:02:29.581Z,100102.70
2022-12-31T05:05:19.525Z,100102.95
2022-12-31T05:07:58.012Z,100106.09
2022-12-31T05:10:37.463Z,100097.72
2022-12-31T05:13:29.471Z,100096.50
2022-12-31T05:16:22.551Z,100097.84
2022-12-31T05:18:58.939Z,100106.06
2022-12-31T05:21:46.389Z,100111.19
2022-12-31T05:24:39.497Z,100117.14
2022-12-31T05:27:16.670Z,100124.91
2022-12-31T05:29:50.451Z,100129.16
2022-12-31T05:32:41.870Z,100133.23
2022-12-31T05:35:32.667Z,100137.70
2022-12-31T05:38:18.885Z,100145.58
2022-12-31T05:41:06.284Z,100143.48
2022-12-31T05:43:47.472Z,100139.79
2022-12-31T05:46:42.520Z,100138.95
2022-12-31T05:49:25.546Z,100135.77
2022-12-31T05:53:16.902Z,100130.19
2022-12-31T05:55:28.686Z,100126.17
2022-12-31T05:58:22.780Z,100123.34
2022-12-31T06:01:19.828Z,100126.42
2022-12-31T06:04:01.632Z,100129.75
2022-12-31T06:06:37.797Z,100133.05
2022-12-31T06:09:35.364Z,100138.89
2022-12-31T06:12:38.066Z,100141.13
2022-12-31T06:15:16.142Z,100144.52
2022-12-31T06:18:12.408Z,100143.84
2022-12-31T06:21:09.478Z,100146.84
2022-12-31T06:23:46.460Z,100151.85
2022-12-31T06:26:32.489Z,100149.46
2022-12-31T06:29:10.720Z,100144.01
2022-12-31T06:31:42.331Z,100145.95
2022-12-31T06:34:21.788Z,100141.00
2022-12-31T06:37:20.259Z,100139.53
2022-12-31T06:39:55.024Z,100140.89
2022-12-31T06:43:22.726Z,100139.29
2022-12-31T06:46:07.224Z,100135.82
2022-12-31T06:48:56.435Z,100131.90
2022-12-31T06:51:41.313Z,100140.95
2022-12-31T06:54:31.270Z,100143.52
2022-12-31T06:57:44.714Z,100146.42
2022-12-31T07:01:21.524Z,100148.48
2022-12-31T07:04:18.203Z,100154.87
2022-12-31T07:07:07.699Z,100155.33
2022-12-31T07:10:16.996Z,100151.77
2022-12-31T07:13:34.912Z,100154.23
2022-12-31T07:16:41.103Z,100155.02
2022-12-31T07:19:36.728Z,100155.58
2022-12-31T07:22:22.691Z,100155.17
2022-12-31T07:25:10.448Z,100157.89
2022-12-31T07:27:54.020Z,100158.64
2022-12-31T07:30:54.763Z,100158.78
2022-12-31T07:34:08.603Z,100162.11
2022-12-31T07:37:00.167Z,100164.97
2022-12-31T07:40:37.010Z,100160.88
2022-12-31T07:43:26.223Z,100151.83
2022-12-31T07:46:14.006Z,100145.03
2022-12-31T07:48:43.986Z,100149.23
2022-12-31T07:51:14.334Z,100145.86
2022-12-31T07:53:55.026Z,100148.35
2022-12-31T07:56:35.364Z,100148.86
2022-12-31T07:59:35.610Z,100153.98
2022-12-31T08:03:46.239Z,100160.30
2022-12-31T08:06:58.592Z,100155.89
2022-12-31T08:10:12.539Z,100155.49
2022-12-31T08:13:27.950Z,100160.66
2022-12-31T08:16:20.245Z,100154.40
2022-12-31T08:19:39.753Z,100166.51
2022-12-31T08:22:33.583Z,100178.29
2022-12-31T08:25:46.030Z,100180.92
2022-12-31T08:28:52.946Z,100174.85
2022-12-31T08:31:56.787Z,100175.98
2022-12-31T08:34:45.863Z,100178.14
2022-12-31T08:38:12.874Z,100169.66
2022-12-31T08:41:34.292Z,100175.33
2022-12-31T08:44:45.107Z,100174.73
2022-12-31T08:47:55.031Z,100173.42
2022-12-31T08:50:32.511Z,100177.51
2022-12-31T08:53:12.996Z,100178.42
2022-12-31T08:56:33.995Z,100186.38
2022-12-31T08:59:51.655Z,100194.52
2022-12-31T09:03:35.367Z,100191.39
2022-12-31T09:06:37.626Z,100193.92
2022-12-31T09:09:47.593Z,100185.92
2022-12-31T09:12:37.132Z,100185.15
2022-12-31T09:16:04.222Z,100184.70
2022-12-31T09:18:45.479Z,100176.42
2022-12-31T09:21:16.731Z,100167.95
2022-12-31T09:23:47.779Z,100161.59
2022-12-31T09:26:51.945Z,100153.49
2022-12-31T09:30:07.844Z,100146.71
2022-12-31T09:33:03.204Z,100139.62
2022-12-31T09:36:14.584Z,100137.82
2022-12-31T09:40:01.163Z,100137.58
2022-12-31T09:43:16.896Z,100145.02
2022-12-31T09:46:35.713Z,100144.63
2022-12-31T09:49:43.438Z,100142.05
2022-12-31T09:52:46.199Z,100142.02
2022-12-31T09:55:45.093Z,100145.84
2022-12-31T09:58:49.640Z,100141.77
2022-12-31T10:01:56.620Z,100138.14
2022-12-31T10:04:58.926Z,100137.48
2022-12-31T10:07:50.377Z,100128.52
2022-12-31T10:11:06.074Z,100123.48
2022-12-31T10:14:19.014Z,100118.13
2022-12-31T10:17:36.549Z,100119.02
2022-12-31T10:20:54.641Z,100116.45
2022-12-31T10:24:13.771Z,100099.77
2022-12-31T10:26:55.027Z,100098.34
2022-12-31T10:29:59.374Z,100096.77
2022-12-31T10:32:58.998Z,100096.23
2022-12-31T10:36:09.137Z,100089.69
2022-12-31T10:39:23.866Z,100080.78
2022-12-31T10:42:33.370Z,100076.77
2022-12-31T10:46:00.519Z,100076.18
2022-12-31T10:49:29.966Z,100073.13
2022-12-31T10:52:13.395Z,100073.76
2022-12-31T10:55:16.347Z,100079.52
2022-12-31T10:58:01.885Z,100086.54
2022-12-31T11:01:34.615Z,100086.96
2022-12-31T11:05:01.377Z,100082.95
2022-12-31T11:08:17.362Z,100076.48
2022-12-31T11:11:50.515Z,100079.70
2022-12-31T11:14:54.249Z,100084.50
2022-12-31T11:17:59.770Z,100076.55
2022-12-31T11:21:16.982Z,100071.91
2022-12-31T11:23:53.303Z,100076.04
2022-12-31T11:27:26.455Z,100073.28
2022-12-31T11:30:36.072Z,100069.97
2022-12-31T11:34:07.714Z,100066.27
2022-12-31T11:37:53.065Z,100053.49
2022-12-31T11:40:54.175Z,100049.55
2022-12-31T11:44:17.408Z,100047.23
2022-12-31T11:48:29.817Z,100038.62
2022-12-31T11:51:51.903Z,100030.71
2022-12-31T11:58:31.294Z,100016.34
2022-12-31T12:01:19.074Z,100017.14
2022-12-31T12:04:01.431Z,100015.15
2022-12-31T12:06:33.818Z,100016.31
2022-12-31T12:09:28.805Z,100018.11
2022-12-31T12:12:06.103Z,100023.74
2022-12-31T12:14:47.496Z,100022.60
2022-12-31T12:17:37.916Z,100022.63
2022-12-31T12:20:35.823Z,100026.55
2022-12-31T12:23:29.785Z,100032.03
2022-12-31T12:26:53.725Z,100023.34
2022-12-31T12:29:44.550Z,100021.89
2022-12-31T12:32:27.960Z,100017.59
2022-12-31T12:35:17.515Z,100020.12
2022-12-31T12:37:47.436Z,100025.97
2022-12-31T12:40:33.309Z,100024.62
2022-12-31T12:43:04.431Z,100024.89
2022-12-31T12:45:51.397Z,100020.79
2022-12-31T12:48:42.514Z,100021.08
2022-12-31T12:51:56.226Z,100015.17
2022-12-31T12:54:39.198Z,100019.05
2022-12-31T12:57:21.119Z,100012.08
2022-12-31T13:00:22.095Z,100016.70
2022-12-31T13:03:30.334Z,100016.42
2022-12-31T13:06:05.261Z,100026.02
2022-12-31T13:09:05.287Z,100031.98
2022-12-31T13:11:54.199Z,100029.44
2022-12-31T13:15:04.367Z,100032.77
2022-12-31T13:18:19.356Z,100030.59
2022-12-31T13:21:02.431Z,100030.41
2022-12-31T13:23:50.345Z,100034.42
2022-12-31T13:26:39.333Z,100036.90
2022-12-31T13:29:17.423Z,100041.36
2022-12-31T13:31:50.587Z,100039.58
2022-12-31T13:34:27.404Z,100036.06
2022-12-31T13:37:03.431Z,100043.84
2022-12-31T13:39:40.864Z,100049.63
2022-12-31T13:42:28.231Z,100049.38
2022-12-31T13:45:40.199Z,100053.70
2022-12-31T13:48:40.196Z,100053.52
2022-12-31T13:51:52.868Z,100053.12
2022-12-31T13:55:13.094Z,100047.61
2022-12-31T13:58:52.819Z,100043.20
2022-12-31T14:01:33.403Z,100038.90
2022-12-31T14:04:52.408Z,100044.80
2022-12-31T14:07:50.184Z,100052.09
2022-12-31T14:10:39.232Z,100053.38
2022-12-31T14:13:41.976Z,100054.34
2022-12-31T14:16:19.505Z,100055.79
2022-12-31T14:19:28.970Z,100064.66
2022-12-31T14:22:26.977Z,100062.05
2022-12-31T14:24:58.876Z,100058.39
2022-12-31T14:27:53.137Z,100058.45
2022-12-31T14:30:31.337Z,100059.79
2022-12-31T14:34:06.587Z,100063.94
2022-12-31T14:37:05.845Z,100061.73
2022-12-31T14:40:20.448Z,100056.70
2022-12-31T14:43:25.096Z,100064.30
2022-12-31T14:46:32.532Z,100071.83
2022-12-31T14:49:54.899Z,100076.42
2022-12-31T14:53:08.332Z,100075.80
2022-12-31T14:55:43.567Z,100076.01
2022-12-31T14:58:35.529Z,100084.30
2022-12-31T15:01:14.761Z,100092.13
2022-12-31T15:03:59.228Z,100094.34
2022-12-31T15:07:04.600Z,100096.67
2022-12-31T15:10:24.247Z,100099.83
2022-12-31T15:13:47.993Z,100104.70
2022-12-31T15:17:09.080Z,100108.59
2022-12-31T15:20:17.576Z,100106.27
2022-12-31T15:22:55.632Z,100105.95
2022-12-31T15:25:40.392Z,100103.80
2022-12-31T15:28:37.934Z,100105.45
2022-12-31T15:31:18.176Z,100102.19
2022-12-31T15:34:07.186Z,100102.42
2022-12-31T15:36:54.917Z,100101.63
2022-12-31T15:39:43.268Z,100107.69
2022-12-31T15:42:49.410Z,100111.86
2022-12-31T15:45:36.114Z,100111.89
2022-12-31T15:48:27.976Z,100116.24
2022-12-31T15:51:02.549Z,100120.39
2022-12-31T15:53:45.913Z,100122.33
2022-12-31T15:56:22.693Z,100124.65
2022-12-31T15:59:00.921Z,100129.73
2022-12-31T16:01:36.434Z,100134.27
2022-12-31T16:04:25.860Z,100138.30
2022-12-31T16:07:08.817Z,100138.29
2022-12-31T16:09:45.370Z,100140.17
2022-12-31T16:12:40.805Z,100139.77
2022-12-31T16:15:31.536Z,100142.00
2022-12-31T16:18:22.632Z,100141.02
2022-12-31T16:21:43.315Z,100133.99
2022-12-31T16:25:28.504Z,100133.02
2022-12-31T16:28:08.736Z,100134.36
2022-12-31T16:31:04.179Z,100141.08
2022-12-31T16:33:42.083Z,100146.70
2022-12-31T16:36:27.555Z,100147.06
2022-12-31T16:39:45.495Z,100152.14
2022-12-31T16:42:38.128Z,100154.50
2022-12-31T16:45:40.839Z,100158.92
2022-12-31T16:48:21.070Z,100159.71
2022-12-31T16:51:00.845Z,100162.83
2022-12-31T16:53:38.619Z,100171.65
2022-12-31T16:56:12.603Z,100174.98
2022-12-31T16:58:45.825Z,100178.03
2022-12-31T17:01:32.020Z,100182.20
2022-12-31T17:04:29.522Z,100180.89
2022-12-31T17:08:21.855Z,100180.09
2022-12-31T17:13:43.543Z,100183.27
2022-12-31T17:16:23.442Z,100184.48
2022-12-31T17:21:51.325Z,100183.50
2022-12-31T17:24:33.925Z,100184.37
2022-12-31T17:28:15.395Z,100183.89
2022-12-31T17:31:05.856Z,100186.23
2022-12-31T17:34:16.066Z,100192.08
2022-12-31T17:37:19.905Z,100185.70
2022-12-31T17:41:26.770Z,100193.28
2022-12-31T17:44:37.301Z,100205.14
2022-12-31T17:47:24.307Z,100216.67
2022-12-31T17:49:57.558Z,100214.96
2022-12-31T17:52:56.206Z,100211.02
2022-12-31T17:55:36.891Z,100213.87
2022-12-31T17:58:15.636Z,100214.39
2022-12-31T18:00:45.464Z,100213.43
2022-12-31T18:03:30.195Z,100213.13
2022-12-31T18:06:29.298Z,100207.70
2022-12-31T18:09:16.747Z,100216.10
2022-12-31T18:12:05.656Z,100222.30
2022-12-31T18:14:37.942Z,100221.20
2022-12-31T18:17:26.751Z,100217.54
2022-12-31T18:20:06.168Z,100212.11
2022-12-31T18:22:42.026Z,100210.36
2022-12-31T18:28:15.235Z,100223.27
2022-12-31T18:30:50.121Z,100227.71
2022-12-31T18:34:01.645Z,100229.50
2022-12-31T18:36:35.909Z,100232.42
2022-12-31T18:39:35.635Z,100236.89
2022-12-31T18:42:24.285Z,100236.93
2022-12-31T18:45:04.414Z,100236.15
2022-12-31T18:47:42.125Z,100237.64
2022-12-31T18:50:21.403Z,100239.27
2022-12-31T18:53:06.320Z,100234.87
2022-12-31T18:55:48.128Z,100236.07
2022-12-31T18:58:19.321Z,100239.52
2022-12-31T19:00:57.816Z,100240.84
2022-12-31T19:03:53.278Z,100238.45
2022-12-31T19:06:59.852Z,100229.82
2022-12-31T19:10:41.798Z,100222.70
2022-12-31T19:13:32.632Z,100225.84
2022-12-31T19:16:39.734Z,100221.46
2022-12-31T19:20:30.213Z,100222.86
2022-12-31T19:23:44.328Z,100225.59
2022-12-31T19:26:59.910Z,100228.14
2022-12-31T19:29:55.427Z,100231.58
2022-12-31T19:32:45.408Z,100234.69
2022-12-31T19:35:42.266Z,100238.21
2022-12-31T19:38:25.177Z,100226.96
2022-12-31T19:40:57.474Z,100211.83
2022-12-31T19:43:27.642Z,100216.96
2022-12-31T19:46:04.032Z,100220.50
2022-12-31T19:48:36.402Z,100229.41
2022-12-31T19:51:20.832Z,100234.61
2022-12-31T19:53:50.625Z,100236.80
2022-12-31T19:56:21.029Z,100238.30
2022-12-31T19:58:53.180Z,100239.55
2022-12-31T20:01:25.561Z,100244.12
2022-12-31T20:03:56.684Z,100244.23
2022-12-31T20:06:28.884Z,100240.92
2022-12-31T20:09:08.078Z,100240.52
2022-12-31T20:11:44.448Z,100249.02
2022-12-31T20:14:19.780Z,100254.32
2022-12-31T20:17:01.680Z,100259.13
2022-12-31T20:19:34.562Z,100255.00
2022-12-31T20:22:04.891Z,100252.88
2022-12-31T20:24:35.234Z,100246.01
2022-12-31T20:27:13.502Z,100243.09
2022-12-31T20:29:51.334Z,100241.92
2022-12-31T20:32:27.304Z,100237.71
2022-12-31T20:34:57.067Z,100242.83
2022-12-31T20:37:26.912Z,100245.88
2022-12-31T20:39:59.482Z,100253.13
2022-12-31T20:42:31.665Z,100253.36
2022-12-31T20:45:09.839Z,100249.59
2022-12-31T20:47:39.773Z,100247.06
2022-12-31T20:50:14.248Z,100256.15
2022-12-31T20:52:46.521Z,100254.70
2022-12-31T20:55:27.612Z,100253.39
2022-12-31T20:57:58.197Z,100256.36
2022-12-31T21:00:28.895Z,100250.21
2022-12-31T21:03:18.604Z,100248.25
2022-12-31T21:05:55.545Z,100246.63
2022-12-31T21:08:34.795Z,100241.70
2022-12-31T21:11:48.319Z,100237.11
2022-12-31T21:14:19.360Z,100236.05
2022-12-31T21:16:53.634Z,100238.85
2022-12-31T21:19:24.245Z,100238.52
2022-12-31T21:22:15.583Z,100235.95
2022-12-31T21:24:53.150Z,100243.95
2022-12-31T21:27:44.527Z,100241.27
2022-12-31T21:30:22.544Z,100236.96
2022-12-31T21:33:02.227Z,100237.90
2022-12-31T21:36:10.784Z,100239.46
2022-12-31T21:39:04.719Z,100242.83
2022-12-31T21:41:59.992Z,100240.13
2022-12-31T21:44:49.791Z,100237.61
2022-12-31T21:47:58.445Z,100237.69
2022-12-31T21:50:46.823Z,100236.20
2022-12-31T21:53:36.710Z,100242.16
2022-12-31T21:56:18.546Z,100242.55
2022-12-31T21:59:16.082Z,100243.09
2022-12-31T22:02:13.543Z,100243.34
2022-12-31T22:05:06.907Z,100245.79
2022-12-31T22:08:03.682Z,100249.81
2022-12-31T22:11:15.213Z,100248.27
2022-12-31T22:13:53.223Z,100251.74
2022-12-31T22:16:35.358Z,100249.19
2022-12-31T22:19:12.474Z,100251.50
2022-12-31T22:22:07.047Z,100253.39
2022-12-31T22:24:59.445Z,100252.92
2022-12-31T22:27:36.582Z,100252.63
2022-12-31T22:30:18.600Z,100252.14
2022-12-31T22:33:13.387Z,100248.77
2022-12-31T22:36:09.472Z,100255.31
2022-12-31T22:38:54.229Z,100259.03
2022-12-31T22:41:43.779Z,100251.67
2022-12-31T22:44:36.581Z,100251.30
2022-12-31T22:47:23.003Z,100257.92
2022-12-31T22:50:08.636Z,100257.19
2022-12-31T22:52:47.390Z,100250.26
2022-12-31T22:55:37.085Z,100255.32
2022-12-31T22:58:27.300Z,100262.29
2022-12-31T23:01:28.468Z,100259.42
2022-12-31T23:04:07.591Z,100260.82
2022-12-31T23:07:12.962Z,100266.20
2022-12-31T23:10:20.884Z,100270.01
2022-12-31T23:13:50.617Z,100280.50
2022-12-31T23:16:49.516Z,100279.19
2022-12-31T23:20:43.348Z,100271.45
2022-12-31T23:23:30.623Z,100261.55
2022-12-31T23:26:13.145Z,100255.02
2022-12-31T23:28:47.875Z,100249.98
2022-12-31T23:31:32.112Z,100244.19
2022-12-31T23:34:23.741Z,100241.27
2022-12-31T23:37:01.637Z,100244.03
2022-12-31T23:39:54.133Z,100249.36
2022-12-31T23:43:02.318Z,100250.48
2022-12-31T23:45:59.109Z,100248.43
2022-12-31T23:48:35.436Z,100244.17
2022-12-31T23:54:19.518Z,100243.22
2022-12-31T23:57:01.091Z,100240.81
2022-12-31T23:59:53.003Z,100242.40
